createdAt,value
2023-01-30T00:01:58.195Z,73.46
2023-01-30T00:04:25.986Z,73.31
2023-01-30T00:06:53.432Z,73.38
2023-01-30T00:09:21.287Z,72.36
2023-01-30T00:11:48.706Z,72.49
2023-01-30T00:14:16.553Z,72.58
2023-01-30T00:16:44.120Z,73.28
2023-01-30T00:19:11.935Z,72.61
2023-01-30T00:21:39.547Z,70.59
2023-01-30T00:24:07.938Z,71.30
2023-01-30T00:26:35.448Z,70.45
2023-01-30T00:29:03.354Z,71.02
2023-01-30T00:31:31.510Z,70.57
2023-01-30T00:33:59.360Z,70.99
2023-01-30T00:36:26.939Z,69.91
2023-01-30T00:38:58.625Z,70.41
2023-01-30T00:41:46.302Z,70.67
2023-01-30T00:44:32.582Z,71.25
2023-01-30T00:47:06.264Z,71.93
2023-01-30T00:49:34.368Z,70.92
2023-01-30T00:52:02.427Z,69.70
2023-01-30T00:54:31.093Z,70.21
2023-01-30T00:56:59.550Z,69.10
2023-01-30T00:59:28.280Z,70.72
2023-01-30T01:01:55.967Z,69.32
2023-01-30T01:04:23.830Z,68.67
2023-01-30T01:06:51.290Z,68.66
2023-01-30T01:09:19.239Z,68.56
2023-01-30T01:11:46.781Z,68.82
2023-01-30T01:14:15.040Z,68.74
2023-01-30T01:16:42.700Z,69.87
2023-01-30T01:19:10.503Z,69.11
2023-01-30T01:21:38.023Z,67.59
2023-01-30T01:24:06.568Z,68.45
2023-01-30T01:26:34.425Z,69.15
2023-01-30T01:29:03.621Z,68.50
2023-01-30T01:31:31.770Z,67.06
2023-01-30T01:33:59.614Z,68.24
2023-01-30T01:36:52.156Z,67.26
2023-01-30T01:39:14.967Z,66.97
2023-01-30T01:41:42.929Z,67.70
2023-01-30T01:44:17.299Z,66.20
2023-01-30T01:46:57.961Z,66.98
2023-01-30T01:49:34.717Z,65.73
2023-01-30T01:52:15.876Z,65.61
2023-01-30T01:54:54.830Z,65.81
2023-01-30T01:57:54.220Z,66.26
2023-01-30T02:00:24.364Z,66.04
2023-01-30T02:03:01.844Z,65.92
2023-01-30T02:05:40.885Z,67.11
2023-01-30T02:08:19.193Z,67.48
2023-01-30T02:11:11.893Z,67.98
2023-01-30T02:13:39.599Z,67.98
2023-01-30T02:16:09.228Z,66.50
2023-01-30T02:18:42.066Z,67.45
2023-01-30T02:21:52.156Z,67.78
2023-01-30T02:24:51.609Z,66.21
2023-01-30T02:27:35.134Z,67.14
2023-01-30T02:30:22.441Z,66.88
2023-01-30T02:33:32.634Z,67.49
2023-01-30T02:36:24.952Z,67.29
2023-01-30T02:39:08.897Z,68.70
2023-01-30T02:41:57.887Z,70.86
2023-01-30T02:44:33.420Z,69.81
2023-01-30T02:47:10.114Z,70.27
2023-01-30T02:50:14.284Z,70.98
2023-01-30T02:52:42.613Z,70.70
2023-01-30T02:55:26.826Z,70.40
2023-01-30T02:57:56.084Z,70.78
2023-01-30T03:00:45.291Z,71.46
2023-01-30T03:03:24.418Z,71.97
2023-01-30T03:06:10.072Z,72.26
2023-01-30T03:09:07.819Z,73.18
2023-01-30T03:12:08.081Z,74.91
2023-01-30T03:15:05.301Z,74.79
2023-01-30T03:17:35.318Z,75.46
2023-01-30T03:20:04.358Z,75.74
2023-01-30T03:22:33.481Z,75.18
2023-01-30T03:25:01.197Z,75.19
2023-01-30T03:27:29.455Z,76.04
2023-01-30T03:29:57.957Z,76.94
2023-01-30T03:32:26.226Z,77.92
2023-01-30T03:34:53.703Z,78.51
2023-01-30T03:37:21.690Z,76.90
2023-01-30T03:39:49.653Z,78.00
2023-01-30T03:42:17.625Z,78.09
2023-01-30T03:44:45.080Z,77.50
2023-01-30T03:47:12.922Z,77.61
2023-01-30T03:49:40.789Z,77.05
2023-01-30T03:52:08.698Z,77.25
2023-01-30T03:54:36.258Z,77.99
2023-01-30T03:57:04.632Z,79.10
2023-01-30T03:59:32.360Z,78.51
2023-01-30T04:02:06.611Z,78.28
2023-01-30T04:04:34.859Z,77.25
2023-01-30T04:07:04.587Z,76.92
2023-01-30T04:09:33.652Z,76.33
2023-01-30T04:12:02.926Z,77.41
2023-01-30T04:14:35.877Z,77.92
2023-01-30T04:17:26.540Z,77.09
2023-01-30T04:20:29.085Z,75.51
2023-01-30T04:22:58.103Z,75.15
2023-01-30T04:25:27.547Z,75.76
2023-01-30T04:27:55.685Z,75.26
2023-01-30T04:30:27.663Z,74.80
2023-01-30T04:33:07.845Z,74.07
2023-01-30T04:35:35.526Z,74.86
2023-01-30T04:38:03.446Z,74.68
2023-01-30T04:40:31.076Z,75.13
2023-01-30T04:42:58.941Z,75.52
2023-01-30T04:46:01.591Z,75.95
2023-01-30T04:48:30.849Z,76.27
2023-01-30T04:51:00.879Z,77.01
2023-01-30T04:53:29.341Z,77.66
2023-01-30T04:55:57.828Z,77.04
2023-01-30T04:58:25.769Z,77.70
2023-01-30T05:00:53.763Z,77.47
2023-01-30T05:03:21.654Z,78.11
2023-01-30T05:05:49.271Z,78.03
2023-01-30T05:08:17.248Z,76.45
2023-01-30T05:10:44.799Z,77.04
2023-01-30T05:13:13.034Z,76.24
2023-01-30T05:15:40.910Z,73.96
2023-01-30T05:18:08.812Z,72.74
2023-01-30T05:20:36.332Z,72.52
2023-01-30T05:23:04.173Z,71.93
2023-01-30T05:25:31.930Z,72.98
2023-01-30T05:28:00.189Z,73.00
2023-01-30T05:30:27.769Z,71.79
2023-01-30T05:32:58.864Z,71.30
2023-01-30T05:35:26.311Z,72.60
2023-01-30T05:37:54.106Z,70.81
2023-01-30T05:40:21.531Z,69.65
2023-01-30T05:42:49.437Z,70.82
2023-01-30T05:45:17.341Z,68.40
2023-01-30T05:47:45.344Z,69.63
2023-01-30T05:50:12.894Z,67.75
2023-01-30T05:52:40.997Z,67.82
2023-01-30T05:55:09.223Z,67.72
2023-01-30T05:57:36.993Z,67.23
2023-01-30T06:00:06.493Z,67.12
2023-01-30T06:02:41.497Z,67.47
2023-01-30T06:05:09.529Z,66.78
2023-01-30T06:07:37.338Z,66.21
2023-01-30T06:10:05.280Z,66.24
2023-01-30T06:12:33.455Z,66.84
2023-01-30T06:15:00.982Z,67.33
2023-01-30T06:17:29.987Z,64.80
2023-01-30T06:19:57.594Z,63.64
2023-01-30T06:22:25.304Z,64.84
2023-01-30T06:24:52.848Z,65.04
2023-01-30T06:27:20.809Z,63.62
2023-01-30T06:29:48.275Z,62.93
2023-01-30T06:32:16.069Z,61.99
2023-01-30T06:34:43.590Z,63.67
2023-01-30T06:37:11.403Z,63.38
2023-01-30T06:39:38.987Z,62.88
2023-01-30T06:42:07.282Z,63.15
2023-01-30T06:44:34.753Z,63.79
2023-01-30T06:47:02.650Z,62.45
2023-01-30T06:49:30.339Z,62.55
2023-01-30T06:51:58.486Z,61.98
2023-01-30T06:54:26.058Z,62.09
2023-01-30T06:56:54.308Z,62.62
2023-01-30T06:59:21.857Z,61.79
2023-01-30T07:01:49.961Z,59.34
2023-01-30T07:04:17.623Z,59.40
2023-01-30T07:06:46.916Z,59.79
2023-01-30T07:09:14.615Z,60.04
2023-01-30T07:11:42.561Z,60.17
2023-01-30T07:14:10.472Z,61.10
2023-01-30T07:16:38.366Z,60.17
2023-01-30T07:19:05.844Z,61.28
2023-01-30T07:21:33.656Z,60.65
2023-01-30T07:24:01.202Z,60.20
2023-01-30T07:26:31.306Z,59.55
2023-01-30T07:28:59.183Z,58.87
2023-01-30T07:31:27.216Z,59.29
2023-01-30T07:33:54.802Z,58.72
2023-01-30T07:36:22.621Z,58.86
2023-01-30T07:38:50.026Z,58.43
2023-01-30T07:41:17.753Z,58.31
2023-01-30T07:43:45.274Z,59.02
2023-01-30T07:46:13.080Z,57.75
2023-01-30T07:48:40.542Z,57.32
2023-01-30T07:51:08.411Z,58.02
2023-01-30T07:53:35.837Z,57.60
2023-01-30T07:56:14.210Z,55.71
2023-01-30T07:58:41.865Z,55.64
2023-01-30T08:01:09.851Z,56.04
2023-01-30T08:03:37.393Z,57.19
2023-01-30T08:06:05.483Z,56.93
2023-01-30T08:08:33.013Z,55.79
2023-01-30T08:11:00.975Z,56.44
2023-01-30T08:13:28.363Z,54.41
2023-01-30T08:16:00.285Z,55.70
2023-01-30T08:18:33.521Z,55.69
2023-01-30T08:21:04.769Z,54.91
2023-01-30T08:23:34.033Z,55.64
2023-01-30T08:26:03.312Z,55.02
2023-01-30T08:28:31.540Z,54.43
2023-01-30T08:30:59.820Z,55.28
2023-01-30T08:33:27.797Z,55.12
2023-01-30T08:35:57.236Z,55.86
2023-01-30T08:38:24.805Z,55.01
2023-01-30T08:40:52.813Z,55.28
2023-01-30T08:43:20.665Z,55.00
2023-01-30T08:45:48.704Z,54.86
2023-01-30T08:48:16.257Z,54.50
2023-01-30T08:50:44.201Z,55.20
2023-01-30T08:53:11.907Z,54.36
2023-01-30T08:55:39.976Z,54.43
2023-01-30T08:58:07.642Z,55.57
2023-01-30T09:00:35.531Z,56.06
2023-01-30T09:03:03.163Z,56.01
2023-01-30T09:05:31.052Z,56.30
2023-01-30T09:07:58.785Z,55.92
2023-01-30T09:10:26.574Z,55.56
2023-01-30T09:12:54.001Z,56.67
2023-01-30T09:15:21.914Z,56.27
2023-01-30T09:17:49.562Z,55.59
2023-01-30T09:20:19.095Z,55.91
2023-01-30T09:22:47.103Z,55.42
2023-01-30T09:25:15.459Z,55.44
2023-01-30T09:27:44.604Z,55.14
2023-01-30T09:30:12.609Z,55.70
2023-01-30T09:32:40.273Z,55.30
2023-01-30T09:35:08.677Z,55.21
2023-01-30T09:37:36.255Z,55.00
2023-01-30T09:40:05.316Z,55.93
2023-01-30T09:43:00.226Z,54.08
2023-01-30T09:45:38.316Z,54.48
2023-01-30T09:48:32.792Z,55.46
2023-01-30T09:51:26.280Z,55.60
2023-01-30T09:54:16.909Z,55.28
2023-01-30T09:56:44.947Z,54.80
2023-01-30T09:59:34.698Z,54.29
2023-01-30T10:02:44.959Z,55.22
2023-01-30T10:05:13.236Z,55.24
2023-01-30T10:08:06.217Z,55.27
2023-01-30T10:11:09.621Z,54.23
2023-01-30T10:14:04.817Z,55.30
2023-01-30T10:16:44.360Z,54.65
2023-01-30T10:19:35.177Z,54.54
2023-01-30T10:22:28.447Z,53.47
2023-01-30T10:25:32.837Z,54.05
2023-01-30T10:28:21.090Z,54.35
2023-01-30T10:30:56.424Z,54.13
2023-01-30T10:33:40.815Z,53.68
2023-01-30T10:36:18.654Z,54.17
2023-01-30T10:38:54.924Z,53.84
2023-01-30T10:41:38.852Z,52.78
2023-01-30T10:44:13.217Z,52.82
2023-01-30T10:47:47.699Z,52.76
2023-01-30T10:50:26.947Z,51.83
2023-01-30T10:53:17.185Z,51.69
2023-01-30T10:55:48.790Z,51.71
2023-01-30T10:58:41.430Z,52.21
2023-01-30T11:01:47.830Z,51.50
2023-01-30T11:04:34.293Z,52.08
2023-01-30T11:07:03.125Z,52.04
2023-01-30T11:09:47.574Z,52.37
2023-01-30T11:12:15.866Z,51.44
2023-01-30T11:14:59.802Z,52.30
2023-01-30T11:17:45.864Z,50.92
2023-01-30T11:20:22.648Z,50.98
2023-01-30T11:23:08.307Z,52.36
2023-01-30T11:26:02.321Z,52.04
2023-01-30T11:28:44.199Z,50.06
2023-01-30T11:31:38.949Z,50.86
2023-01-30T11:34:17.955Z,49.60
2023-01-30T11:36:49.579Z,49.09
2023-01-30T11:39:20.499Z,48.43
2023-01-30T11:41:54.374Z,48.84
2023-01-30T11:44:40.872Z,49.57
2023-01-30T11:47:27.344Z,49.84
2023-01-30T11:50:12.051Z,48.81
2023-01-30T11:52:48.177Z,48.32
2023-01-30T11:55:19.757Z,49.96
2023-01-30T11:57:54.485Z,48.79
2023-01-30T12:00:38.411Z,47.06
2023-01-30T12:03:18.383Z,46.80
2023-01-30T12:05:47.497Z,48.23
2023-01-30T12:08:31.106Z,49.19
2023-01-30T12:11:03.393Z,47.96
2023-01-30T12:13:45.588Z,43.94
2023-01-30T12:16:39.667Z,46.33
2023-01-30T12:20:00.079Z,46.49
2023-01-30T12:22:59.023Z,47.01
2023-01-30T12:25:35.762Z,48.80
2023-01-30T12:28:33.844Z,47.25
2023-01-30T12:31:28.670Z,44.07
2023-01-30T12:33:56.748Z,45.88
2023-01-30T12:37:05.428Z,42.54
2023-01-30T12:39:50.487Z,45.77
2023-01-30T12:42:18.977Z,45.67
2023-01-30T12:45:19.599Z,43.97
2023-01-30T12:48:21.674Z,43.45
2023-01-30T12:51:33.464Z,43.62
2023-01-30T12:54:21.459Z,42.17
2023-01-30T12:57:15.141Z,41.75
2023-01-30T13:00:11.707Z,40.01
2023-01-30T13:03:15.333Z,39.22
2023-01-30T13:06:12.049Z,39.76
2023-01-30T13:09:05.396Z,39.34
2023-01-30T13:12:20.191Z,39.75
2023-01-30T13:15:14.341Z,40.76
2023-01-30T13:17:53.119Z,42.28
2023-01-30T13:21:06.783Z,42.67
2023-01-30T13:23:43.515Z,43.77
2023-01-30T13:26:32.205Z,43.46
2023-01-30T13:29:12.042Z,44.50
2023-01-30T13:31:50.882Z,43.71
2023-01-30T13:34:30.679Z,44.98
2023-01-30T13:37:13.170Z,45.45
2023-01-30T13:39:47.949Z,46.34
2023-01-30T13:42:50.694Z,47.99
2023-01-30T13:45:28.501Z,47.34
2023-01-30T13:48:14.632Z,46.80
2023-01-30T13:51:10.004Z,45.38
2023-01-30T13:54:03.391Z,45.91
2023-01-30T13:57:07.889Z,46.13
2023-01-30T14:00:10.712Z,45.57
2023-01-30T14:03:03.907Z,46.45
2023-01-30T14:05:54.226Z,47.34
2023-01-30T14:08:28.636Z,47.36
2023-01-30T14:10:57.531Z,47.08
2023-01-30T14:13:27.616Z,46.96
2023-01-30T14:16:04.745Z,47.15
2023-01-30T14:18:38.838Z,46.99
2023-01-30T14:21:25.030Z,47.38
2023-01-30T14:24:07.180Z,48.00
2023-01-30T14:26:50.616Z,48.35
2023-01-30T14:29:42.415Z,48.54
2023-01-30T14:32:13.785Z,49.46
2023-01-30T14:35:03.047Z,48.80
2023-01-30T14:37:39.382Z,49.81
2023-01-30T14:40:22.201Z,50.83
2023-01-30T14:43:16.855Z,51.33
2023-01-30T14:45:56.815Z,51.96
2023-01-30T14:49:01.074Z,52.88
2023-01-30T14:51:39.150Z,53.44
2023-01-30T14:54:13.309Z,53.66
2023-01-30T14:57:01.179Z,54.54
2023-01-30T15:00:15.064Z,55.13
2023-01-30T15:02:59.172Z,56.06
2023-01-30T15:05:39.103Z,55.69
2023-01-30T15:08:20.372Z,55.54
2023-01-30T15:11:16.943Z,57.13
2023-01-30T15:14:01.967Z,57.49
2023-01-30T15:17:20.252Z,58.28
2023-01-30T15:20:18.668Z,58.87
2023-01-30T15:23:08.684Z,59.66
2023-01-30T15:25:57.768Z,60.85
2023-01-30T15:28:51.695Z,61.82
2023-01-30T15:31:23.287Z,62.07
2023-01-30T15:33:54.475Z,62.31
2023-01-30T15:36:36.537Z,62.06
2023-01-30T15:39:21.723Z,62.69
2023-01-30T15:41:57.256Z,62.81
2023-01-30T15:44:53.503Z,62.76
2023-01-30T15:47:40.007Z,63.05
2023-01-30T15:50:10.344Z,62.96
2023-01-30T15:52:49.372Z,63.54
2023-01-30T15:55:31.350Z,64.08
2023-01-30T15:58:10.986Z,64.05
2023-01-30T16:00:49.114Z,64.62
2023-01-30T16:03:36.801Z,64.24
2023-01-30T16:06:05.201Z,65.27
2023-01-30T16:08:37.153Z,65.34
2023-01-30T16:11:04.885Z,65.54
2023-01-30T16:13:33.437Z,65.52
2023-01-30T16:16:09.065Z,66.32
2023-01-30T16:18:57.749Z,66.31
2023-01-30T16:21:40.229Z,66.66
2023-01-30T16:24:24.915Z,66.70
2023-01-30T16:27:01.266Z,66.73
2023-01-30T16:29:33.683Z,66.68
2023-01-30T16:32:01.716Z,66.68
2023-01-30T16:34:36.363Z,66.46
2023-01-30T16:37:20.986Z,66.35
2023-01-30T16:40:23.797Z,67.22
2023-01-30T16:43:04.101Z,66.63
2023-01-30T16:45:34.640Z,67.02
2023-01-30T16:48:16.891Z,67.57
2023-01-30T16:50:47.441Z,67.01
2023-01-30T16:53:24.271Z,67.80
2023-01-30T16:56:09.938Z,68.38
2023-01-30T16:58:38.882Z,67.53
2023-01-30T17:01:08.967Z,67.67
2023-01-30T17:03:48.724Z,67.36
2023-01-30T17:06:42.998Z,67.49
2023-01-30T17:09:44.680Z,68.25
2023-01-30T17:12:31.244Z,68.15
2023-01-30T17:15:13.681Z,68.38
2023-01-30T17:17:41.988Z,68.18
2023-01-30T17:20:13.242Z,68.48
2023-01-30T17:22:44.997Z,68.45
2023-01-30T17:25:31.185Z,68.01
2023-01-30T17:27:59.633Z,68.94
2023-01-30T17:30:27.131Z,68.83
2023-01-30T17:33:03.785Z,68.38
2023-01-30T17:38:57.589Z,69.41
2023-01-30T17:41:33.586Z,69.72
2023-01-30T17:44:01.424Z,69.70
2023-01-30T17:46:45.650Z,69.60
2023-01-30T17:49:20.033Z,68.70
2023-01-30T17:51:48.324Z,68.42
2023-01-30T17:54:16.984Z,68.67
2023-01-30T17:57:04.793Z,69.13
2023-01-30T17:59:33.501Z,69.71
2023-01-30T18:02:19.893Z,69.80
2023-01-30T18:04:51.710Z,69.63
2023-01-30T18:11:52.325Z,69.28
2023-01-30T18:14:26.457Z,69.70
2023-01-30T18:17:00.212Z,70.56
2023-01-30T18:19:31.768Z,70.64
2023-01-30T18:22:00.224Z,71.30
2023-01-30T18:24:28.201Z,71.60
2023-01-30T18:26:56.046Z,71.68
2023-01-30T18:30:25.843Z,70.73
2023-01-30T18:42:45.682Z,68.84
2023-01-30T18:45:42.471Z,68.17
2023-01-30T18:48:11.078Z,69.59
2023-01-30T18:50:39.647Z,69.15
2023-01-30T18:53:07.986Z,68.46
2023-01-30T18:55:36.335Z,69.72
2023-01-30T18:58:03.820Z,69.98
2023-01-30T19:00:31.797Z,70.11
2023-01-30T19:02:59.578Z,70.12
2023-01-30T19:05:27.607Z,69.79
2023-01-30T19:07:55.740Z,70.16
2023-01-30T19:10:23.552Z,70.98
2023-01-30T19:13:09.863Z,71.66
2023-01-30T19:15:38.898Z,72.34
2023-01-30T19:18:06.447Z,72.20
2023-01-30T19:20:34.555Z,72.99
2023-01-30T19:23:02.132Z,72.34
2023-01-30T19:25:30.072Z,72.95
2023-01-30T19:27:57.790Z,73.15
2023-01-30T19:30:25.639Z,73.45
2023-01-30T19:32:54.340Z,73.80
2023-01-30T19:35:22.445Z,73.80
2023-01-30T19:37:50.273Z,73.08
2023-01-30T19:40:18.657Z,73.42
2023-01-30T19:42:47.300Z,72.89
2023-01-30T19:45:15.200Z,72.87
2023-01-30T19:47:42.823Z,72.91
2023-01-30T19:50:11.561Z,73.15
2023-01-30T19:52:40.890Z,73.80
2023-01-30T19:55:09.284Z,74.00
2023-01-30T19:57:36.814Z,74.03
2023-01-30T20:00:06.347Z,74.31
2023-01-30T20:02:34.078Z,74.30
2023-01-30T20:05:02.718Z,74.26
2023-01-30T20:07:34.679Z,74.00
2023-01-30T20:10:03.268Z,74.86
2023-01-30T20:12:32.149Z,75.13
2023-01-30T20:14:59.929Z,76.08
2023-01-30T20:17:27.645Z,76.91
2023-01-30T20:19:55.633Z,77.23
2023-01-30T20:22:23.966Z,77.22
2023-01-30T20:24:52.709Z,77.31
2023-01-30T20:27:21.224Z,77.17
2023-01-30T20:29:49.715Z,76.91
2023-01-30T20:32:17.290Z,77.26
2023-01-30T20:34:45.558Z,76.61
2023-01-30T20:37:13.171Z,77.08
2023-01-30T20:39:41.084Z,75.49
2023-01-30T20:42:08.872Z,74.65
2023-01-30T20:44:37.379Z,74.52
2023-01-30T20:47:05.961Z,75.13
2023-01-30T20:49:34.725Z,76.75
2023-01-30T20:52:03.050Z,77.31
2023-01-30T20:54:31.949Z,76.89
2023-01-30T20:57:00.521Z,76.77
2023-01-30T20:59:28.720Z,76.72
2023-01-30T21:01:56.583Z,76.30
2023-01-30T21:04:24.782Z,76.41
2023-01-30T21:06:52.905Z,76.07
2023-01-30T21:09:23.382Z,75.85
2023-01-30T21:11:53.367Z,75.70
2023-01-30T21:14:23.331Z,75.29
2023-01-30T21:16:52.242Z,75.97
2023-01-30T21:19:20.364Z,75.58
2023-01-30T21:21:55.201Z,75.59
2023-01-30T21:24:28.477Z,75.75
2023-01-30T21:26:57.080Z,75.45
2023-01-30T21:29:28.284Z,75.87
2023-01-30T21:31:58.015Z,75.79
2023-01-30T21:34:26.369Z,75.37
2023-01-30T21:37:12.689Z,75.48
2023-01-30T21:39:59.348Z,75.96
2023-01-30T21:42:45.498Z,75.94
2023-01-30T21:45:13.615Z,75.40
2023-01-30T21:47:41.192Z,75.12
2023-01-30T21:50:10.337Z,74.35
2023-01-30T21:52:37.991Z,73.67
2023-01-30T21:55:06.337Z,73.08
2023-01-30T21:57:33.987Z,73.12
2023-01-30T22:00:01.885Z,72.59
2023-01-30T22:02:29.513Z,73.12
2023-01-30T22:04:57.361Z,73.84
2023-01-30T22:07:24.925Z,74.12
2023-01-30T22:09:52.841Z,74.36
2023-01-30T22:12:20.456Z,73.52
2023-01-30T22:15:10.681Z,73.90
2023-01-30T22:18:06.777Z,73.75
2023-01-30T22:20:35.345Z,73.76
2023-01-30T22:23:04.048Z,73.42
2023-01-30T22:25:32.598Z,74.37
2023-01-30T22:28:01.169Z,75.26
2023-01-30T22:30:29.615Z,75.45
2023-01-30T22:32:57.376Z,75.79
2023-01-30T22:35:25.740Z,75.87
2023-01-30T22:37:53.433Z,75.91
2023-01-30T22:40:21.423Z,76.82
2023-01-30T22:43:38.659Z,77.26
2023-01-30T22:46:08.901Z,78.00
2023-01-30T22:49:28.725Z,78.16
2023-01-30T22:51:58.318Z,78.03
2023-01-30T22:54:26.051Z,78.55
2023-01-30T22:57:03.076Z,78.41
2023-01-30T22:59:33.953Z,78.07
2023-01-30T23:02:04.226Z,78.11
2023-01-30T23:04:32.057Z,77.92
2023-01-30T23:07:00.092Z,78.67
2023-01-30T23:09:39.537Z,78.99
2023-01-30T23:12:45.738Z,77.87
2023-01-30T23:15:45.961Z,77.39
2023-01-30T23:18:41.599Z,77.85
2023-01-30T23:21:51.381Z,78.17
2023-01-30T23:24:41.364Z,78.17
2023-01-30T23:27:46.657Z,78.83
2023-01-30T23:30:40.190Z,79.01
2023-01-30T23:33:07.986Z,78.41
2023-01-30T23:35:45.268Z,77.60
2023-01-30T23:38:15.792Z,77.60
2023-01-30T23:44:11.744Z,78.92
2023-01-30T23:47:00.089Z,79.54
2023-01-30T23:49:46.829Z,80.57
2023-01-30T23:52:55.062Z,79.65
2023-01-30T23:59:09.207Z,79.79
